Time;durP1;ratioP1;P1;durP2;ratioP2;P2;SDS_P1;SDS_P2;PMS_P1;PMS_P2;Temp;Humidity;BMP_temperature;BMP_pressure;BME280_temperature;BME280_humidity;BME280_pressure;Samples;Min_cycle;Max_cycle;Signal;HPM_P1;HPM_P2
2023/10/27 00:01:57;;;;;;;2.70;2.50;;;20.90;77.50;;;;;;5034206;28;20993;-91
2023/10/27 00:04:24;;;;;;;2.90;2.70;;;20.90;77.40;;;;;;5034523;28;20836;-93
2023/10/27 00:06:52;;;;;;;2.70;2.50;;;21.00;77.60;;;;;;5034204;28;20446;-94
2023/10/27 00:09:19;;;;;;;2.60;2.40;;;20.90;77.50;;;;;;5034153;28;20456;-91
2023/10/27 00:11:46;;;;;;;3.30;3.10;;;20.90;77.50;;;;;;5034399;28;20446;-93
2023/10/27 00:14:12;;;;;;;2.90;2.70;;;20.90;77.50;;;;;;5033916;28;20477;-91
2023/10/27 00:16:39;;;;;;;2.93;2.53;;;20.90;78.30;;;;;;5034283;28;20441;-93
2023/10/27 00:19:06;;;;;;;2.40;2.20;;;20.90;77.40;;;;;;5034316;28;20442;-93
2023/10/27 00:21:33;;;;;;;3.40;3.10;;;20.90;77.40;;;;;;5033837;28;21004;-91
2023/10/27 00:24:01;;;;;;;5.13;2.57;;;20.90;77.50;;;;;;5034161;28;20470;-91
2023/10/27 00:26:28;;;;;;;2.53;2.33;;;21.00;77.50;;;;;;5034110;28;20468;-92
2023/10/27 00:28:54;;;;;;;2.93;2.70;;;20.90;77.40;;;;;;5034122;28;20453;-93
2023/10/27 00:31:21;;;;;;;2.80;2.60;;;20.90;77.50;;;;;;5033814;28;20445;-93
2023/10/27 00:33:48;;;;;;;2.40;2.20;;;20.90;77.40;;;;;;5034090;28;20452;-91
2023/10/27 00:36:15;;;;;;;3.40;2.60;;;20.90;77.50;;;;;;5033519;28;20445;-93
2023/10/27 00:38:41;;;;;;;2.97;2.63;;;20.90;78.20;;;;;;5033669;28;20453;-94
2023/10/27 00:41:10;;;;;;;3.50;3.20;;;20.90;77.40;;;;;;5033595;28;20477;-93
2023/10/27 00:43:36;;;;;;;2.80;2.60;;;20.90;77.40;;;;;;5033779;28;20446;-93
2023/10/27 00:46:03;;;;;;;2.43;2.23;;;21.00;77.50;;;;;;5033847;28;20456;-93
2023/10/27 00:48:31;;;;;;;4.53;2.57;;;20.90;77.30;;;;;;5033834;28;20442;-93
2023/10/27 00:50:58;;;;;;;2.60;2.40;;;20.90;77.30;;;;;;5033804;28;20450;-91
2023/10/27 00:53:25;;;;;;;2.93;2.63;;;20.90;77.40;;;;;;5033678;28;20441;-92
2023/10/27 00:55:52;;;;;;;2.30;2.20;;;20.90;77.40;;;;;;5033474;28;20438;-91
2023/10/27 00:58:21;;;;;;;2.30;2.10;;;20.90;77.30;;;;;;5033682;28;20799;-92
2023/10/27 01:00:48;;;;;;;2.30;2.10;;;20.90;77.30;;;;;;5033847;28;20449;-93
2023/10/27 01:03:15;;;;;;;2.67;2.47;;;20.80;77.20;;;;;;5033629;28;20446;-94
2023/10/27 01:05:42;;;;;;;2.60;2.40;;;20.90;77.30;;;;;;5033670;28;20549;-93
2023/10/27 01:08:09;;;;;;;2.80;2.60;;;20.80;77.10;;;;;;5033758;28;20451;-92
2023/10/27 01:10:36;;;;;;;2.70;2.03;;;20.80;77.90;;;;;;5034364;28;20436;-94
2023/10/27 01:13:03;;;;;;;2.60;2.40;;;20.80;77.10;;;;;;5033369;28;20473;-93
2023/10/27 01:15:31;;;;;;;2.60;2.40;;;20.80;77.10;;;;;;5033210;28;20440;-91
2023/10/27 01:17:58;;;;;;;1.83;1.73;;;20.80;77.10;;;;;;5033513;28;20448;-94
2023/10/27 01:20:24;;;;;;;2.63;2.43;;;20.90;77.20;;;;;;5033478;28;20442;-91
2023/10/27 01:22:53;;;;;;;3.10;2.80;;;20.80;77.10;;;;;;5033132;28;20492;-94
2023/10/27 01:25:20;;;;;;;3.63;2.60;;;20.80;77.00;;;;;;5033614;28;20512;-92
2023/10/27 01:27:47;;;;;;;2.90;2.70;;;20.80;77.00;;;;;;5033471;28;20446;-93
2023/10/27 01:30:14;;;;;;;2.10;2.00;;;20.80;77.00;;;;;;5033363;28;20964;-91
2023/10/27 01:32:43;;;;;;;2.43;2.23;;;20.80;76.90;;;;;;5033518;28;20455;-91
2023/10/27 01:35:10;;;;;;;2.33;2.13;;;20.90;77.00;;;;;;5033325;28;20482;-91
2023/10/27 01:37:37;;;;;;;2.37;2.17;;;20.80;76.90;;;;;;5033291;28;20464;-92
2023/10/27 01:40:05;;;;;;;2.30;2.10;;;20.80;77.00;;;;;;5033401;28;20442;-92
2023/10/27 01:42:34;;;;;;;2.67;2.47;;;20.80;76.90;;;;;;5033293;28;20595;-94
2023/10/27 01:45:04;;;;;;;2.00;1.90;;;20.80;76.90;;;;;;5033253;28;20468;-91
2023/10/27 01:47:31;;;;;;;2.30;2.10;;;20.80;77.70;;;;;;5033279;28;20450;-93
2023/10/27 01:49:58;;;;;;;2.10;2.00;;;20.80;76.90;;;;;;5036264;28;20445;-91
2023/10/27 01:52:24;;;;;;;2.13;1.90;;;20.80;76.90;;;;;;5036987;28;20460;-93
2023/10/27 01:54:53;;;;;;;2.47;2.27;;;20.90;77.00;;;;;;5036897;28;20473;-93
2023/10/27 01:57:22;;;;;;;2.97;2.77;;;20.90;77.00;;;;;;5036902;28;20437;-90
2023/10/27 01:59:49;;;;;;;2.47;2.27;;;20.80;76.90;;;;;;5036857;28;20504;-91
2023/10/27 02:02:16;;;;;;;2.37;2.27;;;20.90;77.00;;;;;;5036516;28;20480;-91
2023/10/27 02:04:43;;;;;;;2.60;2.40;;;20.80;76.90;;;;;;5036852;28;20442;-91
2023/10/27 02:07:10;;;;;;;2.50;2.30;;;20.80;76.90;;;;;;5036775;28;20447;-91
2023/10/27 02:09:36;;;;;;;2.23;2.10;;;20.80;76.90;;;;;;5036568;28;20437;-93
2023/10/27 02:12:04;;;;;;;2.23;2.13;;;20.80;76.90;;;;;;5037388;28;20438;-93
2023/10/27 02:14:32;;;;;;;2.20;2.10;;;20.80;76.90;;;;;;5036179;28;20826;-93
2023/10/27 02:16:58;;;;;;;2.30;2.10;;;20.80;76.90;;;;;;5036320;28;20445;-93
2023/10/27 02:19:25;;;;;;;2.17;1.97;;;20.80;76.90;;;;;;5036294;28;21019;-93
2023/10/27 02:21:52;;;;;;;2.57;2.37;;;20.80;76.90;;;;;;5036090;28;21003;-91
2023/10/27 02:24:19;;;;;;;2.40;2.20;;;20.80;76.90;;;;;;5036362;28;20480;-91
2023/10/27 02:26:46;;;;;;;1.87;1.77;;;20.80;76.90;;;;;;5036296;28;20450;-91
2023/10/27 02:29:13;;;;;;;2.70;2.50;;;20.70;76.70;;;;;;5036220;28;20937;-91
2023/10/27 02:31:41;;;;;;;2.33;1.90;;;20.80;76.90;;;;;;5035912;28;20446;-93
2023/10/27 02:34:08;;;;;;;2.30;2.10;;;20.70;76.80;;;;;;5036306;28;20448;-93
2023/10/27 02:36:34;;;;;;;2.70;1.97;;;20.70;76.80;;;;;;5036207;28;20444;-93
2023/10/27 02:39:01;;;;;;;2.07;1.80;;;20.70;76.70;;;;;;5035882;28;20456;-91
2023/10/27 02:41:28;;;;;;;2.00;1.90;;;20.70;76.80;;;;;;5035911;28;20586;-93
2023/10/27 02:43:57;;;;;;;2.23;2.03;;;20.70;76.80;;;;;;5036099;28;20443;-90
2023/10/27 02:46:24;;;;;;;2.03;1.93;;;20.70;76.70;;;;;;5035876;28;20541;-91
2023/10/27 02:48:52;;;;;;;1.80;1.70;;;20.70;76.70;;;;;;5035695;28;20945;-91
2023/10/27 02:51:19;;;;;;;2.23;2.07;;;20.80;76.90;;;;;;5035795;28;20453;-92
2023/10/27 02:53:45;;;;;;;2.37;2.17;;;20.70;76.70;;;;;;5035837;28;20477;-93
2023/10/27 02:56:12;;;;;;;2.13;2.03;;;20.80;76.90;;;;;;5035861;28;20444;-90
2023/10/27 02:58:39;;;;;;;2.20;2.00;;;20.70;76.70;;;;;;5035833;28;20540;-93
2023/10/27 03:01:09;;;;;;;2.30;2.10;;;20.70;76.70;;;;;;5035390;28;20455;-93
2023/10/27 03:03:36;;;;;;;2.10;2.00;;;20.70;76.70;;;;;;5035859;28;20500;-93
2023/10/27 03:06:05;;;;;;;2.10;1.90;;;20.70;76.80;;;;;;5035603;28;20534;-93
2023/10/27 03:08:33;;;;;;;2.27;2.13;;;20.70;76.80;;;;;;5035618;28;20439;-93
2023/10/27 03:11:00;;;;;;;2.43;2.23;;;20.70;76.70;;;;;;5035367;28;20445;-91
2023/10/27 03:13:28;;;;;;;2.10;1.67;;;20.70;76.80;;;;;;5035265;28;21012;-94
2023/10/27 03:15:55;;;;;;;1.83;1.73;;;20.70;76.70;;;;;;5035251;28;20444;-93
2023/10/27 03:18:21;;;;;;;2.30;2.10;;;20.70;76.60;;;;;;5035418;28;20448;-93
2023/10/27 03:20:55;;;;;;;2.23;2.03;;;20.70;76.70;;;;;;5035290;28;20838;-94
2023/10/27 03:23:23;;;;;;;2.10;1.90;;;20.70;76.70;;;;;;5034970;28;20496;-91
2023/10/27 03:25:49;;;;;;;2.27;2.00;;;20.70;77.60;;;;;;5035291;28;20806;-91
2023/10/27 03:28:16;;;;;;;2.47;2.00;;;20.80;76.90;;;;;;5035049;28;20507;-94
2023/10/27 03:30:43;;;;;;;2.40;2.20;;;20.70;76.70;;;;;;5035267;28;20812;-93
2023/10/27 03:33:10;;;;;;;1.97;1.87;;;20.70;76.80;;;;;;5034860;28;20933;-91
2023/10/27 03:35:42;;;;;;;1.80;1.70;;;20.80;76.90;;;;;;5035138;28;20452;-93
2023/10/27 03:38:09;;;;;;;1.87;1.77;;;20.70;76.80;;;;;;5035199;28;20528;-92
2023/10/27 03:40:37;;;;;;;1.87;1.77;;;20.70;76.80;;;;;;5034876;28;20791;-93
2023/10/27 03:43:04;;;;;;;1.90;1.70;;;20.70;76.80;;;;;;5034876;28;20499;-94
2023/10/27 03:45:31;;;;;;;2.70;2.20;;;20.70;76.70;;;;;;5034826;28;20452;-91
2023/10/27 03:47:57;;;;;;;1.77;1.67;;;20.70;76.70;;;;;;5034570;28;20441;-93
2023/10/27 03:50:24;;;;;;;2.50;2.30;;;20.80;76.80;;;;;;5034963;28;20464;-91
2023/10/27 03:52:51;;;;;;;2.10;2.00;;;20.70;76.70;;;;;;5034893;28;20440;-91
2023/10/27 03:55:18;;;;;;;2.53;2.33;;;20.70;76.70;;;;;;5034706;28;20470;-91
2023/10/27 03:57:46;;;;;;;2.03;1.93;;;20.70;76.80;;;;;;5034352;28;20453;-93
2023/10/27 04:00:15;;;;;;;2.07;1.87;;;20.70;76.70;;;;;;5016128;28;20447;-92
2023/10/27 04:02:43;;;;;;;2.20;2.00;;;20.70;77.10;;;;;;5014644;28;20475;-92
2023/10/27 04:05:10;;;;;;;2.17;2.07;;;20.80;76.90;;;;;;5014429;28;20942;-92
2023/10/27 04:07:37;;;;;;;1.97;1.80;;;20.70;76.60;;;;;;5014497;28;20445;-93
2023/10/27 04:10:04;;;;;;;2.07;1.97;;;20.70;76.70;;;;;;5014469;28;20486;-93
2023/10/27 04:12:31;;;;;;;2.17;2.07;;;20.70;76.70;;;;;;4998187;28;20443;-93
2023/10/27 04:14:59;;;;;;;2.13;1.93;;;20.70;76.80;;;;;;4994579;28;20550;-95
2023/10/27 04:17:26;;;;;;;1.97;1.87;;;20.80;76.90;;;;;;4995031;28;20447;-93
2023/10/27 04:19:53;;;;;;;2.40;2.20;;;20.70;76.70;;;;;;4995122;28;20469;-90
2023/10/27 04:22:20;;;;;;;2.23;2.10;;;20.70;77.60;;;;;;4994543;28;20578;-90
2023/10/27 04:24:46;;;;;;;2.33;2.23;;;20.80;76.80;;;;;;4995193;28;20575;-92
2023/10/27 04:27:13;;;;;;;2.20;2.00;;;20.70;76.80;;;;;;4994603;28;20458;-92
2023/10/27 04:29:40;;;;;;;2.00;1.90;;;20.70;76.70;;;;;;4994756;28;20460;-91
2023/10/27 04:32:08;;;;;;;1.80;1.70;;;20.70;76.70;;;;;;4994650;28;20452;-92
2023/10/27 04:34:35;;;;;;;2.20;2.10;;;20.70;76.70;;;;;;4994860;28;20471;-93
2023/10/27 04:37:02;;;;;;;1.87;1.73;;;20.70;76.80;;;;;;4994479;28;20461;-92
2023/10/27 04:39:29;;;;;;;2.27;2.17;;;20.70;76.80;;;;;;4994507;28;20439;-94
2023/10/27 04:41:56;;;;;;;2.33;2.13;;;20.70;76.70;;;;;;4994524;28;20444;-93
2023/10/27 04:44:23;;;;;;;1.60;1.50;;;20.80;76.90;;;;;;4994440;28;20498;-90
2023/10/27 04:46:51;;;;;;;3.30;2.30;;;20.70;76.80;;;;;;4994554;28;20495;-90
2023/10/27 04:49:20;;;;;;;2.47;2.33;;;20.70;77.60;;;;;;4994478;28;20447;-91
2023/10/27 04:51:48;;;;;;;2.10;1.80;;;20.70;77.20;;;;;;4995642;28;20451;-91
2023/10/27 04:54:14;;;;;;;2.07;1.97;;;20.70;77.30;;;;;;4995256;28;20820;-90
2023/10/27 04:56:43;;;;;;;2.20;2.07;;;20.70;77.10;;;;;;4994348;28;20832;-90
2023/10/27 04:59:09;;;;;;;1.90;1.80;;;20.70;77.20;;;;;;4993979;28;20534;-91
2023/10/27 05:01:36;;;;;;;2.50;1.90;;;20.90;77.60;;;;;;4993701;28;20790;-90
2023/10/27 05:04:03;;;;;;;2.20;2.00;;;20.70;77.60;;;;;;4993726;28;20970;-92
2023/10/27 05:06:33;;;;;;;2.00;1.90;;;20.80;77.80;;;;;;4991881;28;20447;-89
2023/10/27 05:08:59;;;;;;;2.00;1.90;;;20.90;77.90;;;;;;4993089;28;20467;-92
2023/10/27 05:11:26;;;;;;;2.37;1.63;;;20.80;78.00;;;;;;4992833;28;20458;-93
2023/10/27 05:13:53;;;;;;;2.00;1.87;;;20.80;78.00;;;;;;4992919;28;20574;-90
2023/10/27 05:16:20;;;;;;;1.80;1.70;;;20.80;78.00;;;;;;4994018;28;20443;-90
2023/10/27 05:18:47;;;;;;;1.90;1.80;;;20.80;78.00;;;;;;4993976;28;20439;-92
2023/10/27 05:21:16;;;;;;;2.07;1.87;;;20.80;78.20;;;;;;4993759;28;20444;-90
2023/10/27 05:23:44;;;;;;;2.40;2.20;;;20.80;78.30;;;;;;4996576;28;20576;-89
2023/10/27 05:26:11;;;;;;;2.00;1.90;;;20.90;78.40;;;;;;4997678;28;20449;-90
2023/10/27 05:28:38;;;;;;;1.73;1.63;;;20.80;78.20;;;;;;4997616;28;20457;-90
2023/10/27 05:31:05;;;;;;;1.80;1.70;;;20.80;78.20;;;;;;4997858;28;20440;-90
2023/10/27 05:33:32;;;;;;;2.03;1.93;;;20.80;78.40;;;;;;4997840;28;20534;-90
2023/10/27 05:35:58;;;;;;;2.63;1.80;;;20.80;78.10;;;;;;4997623;28;20578;-93
2023/10/27 05:38:25;;;;;;;1.90;1.80;;;20.80;78.20;;;;;;4997824;28;20451;-89
2023/10/27 05:40:53;;;;;;;2.10;1.90;;;20.80;78.40;;;;;;4997637;28;20439;-93
2023/10/27 05:43:20;;;;;;;1.93;1.83;;;20.80;78.20;;;;;;5014853;28;20577;-88
2023/10/27 05:45:47;;;;;;;2.37;1.90;;;20.80;78.10;;;;;;5036848;28;20441;-89
2023/10/27 05:48:14;;;;;;;2.63;2.43;;;20.80;78.30;;;;;;5036494;28;20790;-83
2023/10/27 05:50:41;;;;;;;2.00;1.80;;;20.80;78.30;;;;;;5021118;28;20454;-88
2023/10/27 05:53:08;;;;;;;1.60;1.50;;;20.80;78.00;;;;;;5027501;28;20457;-89
2023/10/27 05:55:35;;;;;;;1.80;1.57;;;20.80;77.80;;;;;;5017191;28;21029;-88
2023/10/27 05:58:05;;;;;;;2.00;1.53;;;20.80;77.80;;;;;;5035181;28;20449;-87
2023/10/27 06:00:32;;;;;;;2.20;2.00;;;20.80;78.00;;;;;;5037114;28;20435;-86
2023/10/27 06:02:59;;;;;;;1.77;1.67;;;20.80;77.90;;;;;;5036410;28;20484;-87
2023/10/27 06:05:26;;;;;;;2.00;1.77;;;20.80;78.00;;;;;;5036732;28;20446;-91
2023/10/27 06:07:53;;;;;;;2.13;1.93;;;20.80;78.00;;;;;;5036374;28;20450;-89
2023/10/27 06:10:20;;;;;;;1.90;1.80;;;20.80;78.00;;;;;;5035628;28;20430;-89
2023/10/27 06:12:51;;;;;;;1.73;1.57;;;20.70;77.80;;;;;;5025976;28;20525;-90
2023/10/27 06:15:19;;;;;;;1.90;1.63;;;20.70;77.90;;;;;;4996819;28;20924;-89
2023/10/27 06:17:46;;;;;;;2.40;2.20;;;20.70;77.90;;;;;;5006490;28;20781;-90
2023/10/27 06:20:13;;;;;;;1.90;1.80;;;20.70;77.90;;;;;;5013139;28;20439;-89
2023/10/27 06:22:43;;;;;;;2.00;1.80;;;20.80;78.00;;;;;;5000686;28;20857;-88
2023/10/27 06:25:10;;;;;;;2.00;1.80;;;20.70;78.70;;;;;;5016035;28;20461;-88
2023/10/27 06:27:37;;;;;;;2.30;2.00;;;20.70;77.90;;;;;;5015945;28;20443;-88
2023/10/27 06:30:05;;;;;;;2.30;1.90;;;20.70;77.90;;;;;;5016334;28;20450;-88
2023/10/27 06:32:45;;;;;;;1.67;1.57;;;20.70;77.90;;;;;;5015940;28;20439;-92
2023/10/27 06:35:12;;;;;;;2.07;1.70;;;20.70;77.90;;;;;;5015300;28;20453;-90
2023/10/27 06:37:39;;;;;;;2.37;2.17;;;20.70;77.90;;;;;;5000006;28;21011;-88
2023/10/27 06:40:07;;;;;;;2.07;1.97;;;20.70;77.90;;;;;;4996509;28;20451;-89
2023/10/27 06:42:34;;;;;;;2.10;2.00;;;20.60;77.70;;;;;;5016301;28;20477;-89
2023/10/27 06:45:03;;;;;;;1.50;1.40;;;20.70;78.60;;;;;;5008286;28;20530;-89
2023/10/27 06:47:30;;;;;;;2.40;2.20;;;20.60;77.70;;;;;;4996279;28;20458;-89
2023/10/27 06:50:01;;;;;;;1.87;1.77;;;20.60;77.70;;;;;;4996346;28;20440;-89
2023/10/27 06:52:43;;;;;;;2.57;2.00;;;20.60;77.70;;;;;;4996433;28;20448;-91
2023/10/27 06:55:10;;;;;;;1.70;1.50;;;20.60;77.70;;;;;;5005180;28;20626;-89
2023/10/27 06:57:37;;;;;;;1.97;1.87;;;20.70;77.80;;;;;;5015518;28;20443;-88
2023/10/27 07:00:04;;;;;;;1.67;1.57;;;20.60;77.60;;;;;;5015849;28;20800;-89
2023/10/27 07:02:31;;;;;;;1.90;1.67;;;20.60;77.60;;;;;;5015224;28;20443;-90
2023/10/27 07:04:59;;;;;;;2.37;1.60;;;20.60;77.60;;;;;;5015636;28;20845;-90
2023/10/27 07:07:26;;;;;;;2.30;2.03;;;20.60;77.60;;;;;;5015521;28;20446;-88
2023/10/27 07:09:53;;;;;;;1.80;1.70;;;20.60;77.60;;;;;;5015432;28;20435;-88
2023/10/27 07:12:19;;;;;;;2.40;2.00;;;20.60;77.50;;;;;;5015455;28;20450;-90
2023/10/27 07:14:46;;;;;;;2.03;1.50;;;20.60;77.50;;;;;;5031131;28;20834;-90
2023/10/27 07:17:13;;;;;;;2.80;1.90;;;20.60;77.40;;;;;;5035160;28;20536;-88
2023/10/27 07:19:40;;;;;;;1.90;1.80;;;20.60;77.50;;;;;;5035307;28;20558;-89
2023/10/27 07:22:08;;;;;;;1.97;1.87;;;20.70;77.60;;;;;;5024068;28;20455;-88
2023/10/27 07:24:35;;;;;;;1.63;1.53;;;20.70;77.60;;;;;;5014970;28;20580;-89
2023/10/27 07:27:02;;;;;;;2.17;2.00;;;20.70;77.60;;;;;;5024009;28;20453;-90
2023/10/27 07:29:29;;;;;;;1.73;1.63;;;20.60;77.40;;;;;;5018346;28;20438;-89
2023/10/27 07:31:56;;;;;;;1.60;1.50;;;20.60;77.40;;;;;;5034890;28;20441;-88
2023/10/27 07:34:22;;;;;;;3.27;2.03;;;20.60;77.30;;;;;;5031204;28;20443;-87
2023/10/27 07:36:49;;;;;;;2.00;1.77;;;20.60;77.40;;;;;;5019925;28;20454;-88
2023/10/27 07:39:18;;;;;;;1.90;1.60;;;20.60;77.30;;;;;;5019114;28;20439;-89
2023/10/27 07:41:44;;;;;;;2.33;2.03;;;20.60;77.40;;;;;;5014899;28;20473;-92
2023/10/27 07:44:11;;;;;;;2.00;1.80;;;20.60;77.40;;;;;;5014861;28;20499;-89
2023/10/27 07:46:38;;;;;;;1.80;1.70;;;20.60;77.30;;;;;;5014577;28;20442;-89
2023/10/27 07:49:06;;;;;;;1.87;1.63;;;20.60;77.40;;;;;;5014961;28;20489;-89
2023/10/27 07:51:33;;;;;;;1.93;1.73;;;20.60;77.30;;;;;;5014349;28;20447;-88
2023/10/27 07:54:00;;;;;;;2.07;1.80;;;20.60;77.50;;;;;;5017495;28;20567;-91
2023/10/27 07:56:29;;;;;;;3.20;1.60;;;20.60;77.40;;;;;;5025809;28;20445;-89
2023/10/27 07:58:56;;;;;;;2.07;1.70;;;20.60;77.50;;;;;;5032653;28;20445;-86
2023/10/27 08:01:22;;;;;;;1.70;1.60;;;20.60;77.40;;;;;;5030833;28;20452;-90
2023/10/27 08:03:50;;;;;;;2.03;1.70;;;20.60;77.40;;;;;;5033541;28;20949;-89
2023/10/27 08:06:18;;;;;;;2.70;1.80;;;20.60;77.30;;;;;;5014734;28;20530;-88
2023/10/27 08:08:46;;;;;;;2.07;1.97;;;20.60;77.20;;;;;;5014411;28;20458;-88
2023/10/27 08:11:17;;;;;;;1.70;1.60;;;20.60;77.30;;;;;;5014559;28;20547;-89
2023/10/27 08:13:45;;;;;;;1.70;1.60;;;20.60;77.30;;;;;;5016610;28;20475;-90
2023/10/27 08:16:13;;;;;;;1.70;1.60;;;20.60;77.50;;;;;;5024779;28;20461;-88
2023/10/27 08:18:40;;;;;;;1.80;1.70;;;20.60;77.40;;;;;;5033954;28;20446;-87
2023/10/27 08:21:06;;;;;;;1.70;1.60;;;20.70;77.50;;;;;;5033685;28;20463;-88
2023/10/27 08:23:33;;;;;;;1.73;1.63;;;20.70;77.50;;;;;;5034049;28;20486;-89
2023/10/27 08:26:00;;;;;;;1.50;1.40;;;20.60;77.30;;;;;;5033418;28;20448;-87
2023/10/27 08:28:28;;;;;;;4.40;1.60;;;20.60;77.30;;;;;;5021695;28;20443;-89
2023/10/27 08:30:58;;;;;;;1.73;1.63;;;20.70;77.50;;;;;;5015497;28;20511;-86
2023/10/27 08:33:25;;;;;;;1.90;1.77;;;20.60;78.20;;;;;;5014550;28;20996;-91
2023/10/27 08:36:15;;;;;;;1.90;1.50;;;20.60;77.30;;;;;;5010234;28;20461;-93
2023/10/27 08:38:42;;;;;;;1.60;1.50;;;20.60;77.20;;;;;;5004056;28;20435;-91
2023/10/27 08:41:09;;;;;;;1.60;1.30;;;20.60;77.30;;;;;;4993477;28;20443;-91
2023/10/27 08:43:39;;;;;;;1.40;1.30;;;20.60;77.80;;;;;;4992897;28;20577;-90
2023/10/27 08:46:08;;;;;;;2.07;1.70;;;20.60;77.20;;;;;;4993634;28;20534;-90
2023/10/27 08:48:35;;;;;;;1.50;1.40;;;20.60;77.40;;;;;;4993445;28;20451;-89
2023/10/27 08:51:05;;;;;;;1.63;1.53;;;20.60;77.30;;;;;;4993258;28;20441;-90
2023/10/27 08:53:32;;;;;;;1.87;1.77;;;20.60;77.20;;;;;;4993808;28;20466;-90
2023/10/27 08:56:00;;;;;;;1.70;1.53;;;20.60;77.40;;;;;;4993093;28;20787;-91
2023/10/27 08:58:28;;;;;;;1.83;1.73;;;20.60;77.30;;;;;;4992275;28;20487;-90
2023/10/27 09:00:55;;;;;;;1.50;1.40;;;20.60;77.30;;;;;;4992565;28;20447;-90
2023/10/27 09:03:25;;;;;;;1.30;1.20;;;20.60;77.30;;;;;;4992798;28;20612;-91
2023/10/27 09:05:51;;;;;;;1.60;1.50;;;20.60;77.20;;;;;;4992862;28;20450;-89
2023/10/27 09:08:18;;;;;;;1.80;1.67;;;20.70;77.40;;;;;;4992703;28;20444;-90
2023/10/27 09:10:46;;;;;;;1.87;1.50;;;20.80;77.50;;;;;;4993366;28;20439;-91
2023/10/27 09:13:20;;;;;;;1.80;1.43;;;20.60;77.40;;;;;;4993660;28;20497;-91
2023/10/27 09:15:47;;;;;;;1.50;1.40;;;20.60;77.30;;;;;;4993868;28;20448;-91
2023/10/27 09:18:13;;;;;;;1.50;1.40;;;20.60;77.30;;;;;;4994058;28;20799;-90
2023/10/27 09:20:49;;;;;;;1.70;1.60;;;20.70;77.40;;;;;;4993711;28;20443;-90
2023/10/27 09:23:16;;;;;;;1.50;1.30;;;20.70;77.50;;;;;;4993695;28;20466;-89
2023/10/27 09:25:43;;;;;;;2.13;1.93;;;20.70;77.50;;;;;;4993696;28;20579;-90
2023/10/27 09:28:11;;;;;;;1.77;1.67;;;20.60;77.20;;;;;;4994029;28;20882;-90
2023/10/27 09:30:39;;;;;;;1.60;1.50;;;20.60;77.30;;;;;;4993913;28;20529;-91
2023/10/27 09:33:15;;;;;;;1.70;1.60;;;20.60;77.30;;;;;;4993830;28;20453;-91
2023/10/27 09:35:42;;;;;;;1.50;1.40;;;20.70;77.40;;;;;;4993751;28;21021;-90
2023/10/27 09:38:12;;;;;;;2.10;1.40;;;20.60;77.40;;;;;;4993749;28;20542;-91
2023/10/27 09:40:40;;;;;;;3.83;1.53;;;20.60;77.30;;;;;;4993665;28;20480;-90
2023/10/27 09:43:09;;;;;;;1.67;1.47;;;20.70;77.30;;;;;;4993722;28;20447;-91
2023/10/27 09:45:37;;;;;;;1.50;1.37;;;20.70;77.50;;;;;;4993648;28;20491;-89
2023/10/27 09:48:07;;;;;;;1.20;1.10;;;20.80;77.70;;;;;;4993405;28;20455;-89
2023/10/27 09:50:34;;;;;;;1.63;1.53;;;20.70;77.40;;;;;;4993432;28;20447;-90
2023/10/27 09:53:02;;;;;;;1.40;1.30;;;20.70;77.50;;;;;;4993795;28;20458;-90
2023/10/27 09:55:31;;;;;;;1.60;1.30;;;20.70;77.50;;;;;;4993570;28;20459;-91
2023/10/27 09:58:01;;;;;;;1.60;1.43;;;20.70;77.50;;;;;;4993711;28;20525;-91
2023/10/27 10:00:31;;;;;;;1.40;1.30;;;20.70;77.60;;;;;;4993575;28;20870;-91
2023/10/27 10:02:59;;;;;;;1.73;1.60;;;20.70;77.40;;;;;;4993703;28;20522;-90
2023/10/27 10:05:26;;;;;;;1.60;1.40;;;20.70;77.40;;;;;;4993522;28;20490;-91
2023/10/27 10:07:54;;;;;;;1.40;1.30;;;20.60;77.40;;;;;;4993673;28;20449;-91
2023/10/27 10:10:29;;;;;;;1.60;1.20;;;20.70;77.50;;;;;;4995396;28;20946;-90
2023/10/27 10:13:05;;;;;;;1.50;1.20;;;20.70;77.50;;;;;;4996903;28;20509;-91
2023/10/27 10:15:33;;;;;;;1.60;1.40;;;20.70;77.70;;;;;;4996989;28;20442;-89
2023/10/27 10:18:00;;;;;;;1.60;1.30;;;20.70;77.60;;;;;;4996976;28;20445;-90
2023/10/27 10:20:59;;;;;;;1.80;1.70;;;20.70;77.60;;;;;;4996875;28;20440;-91
2023/10/27 10:23:59;;;;;;;1.60;1.13;;;20.70;77.60;;;;;;4996702;28;20463;-91
2023/10/27 10:26:59;;;;;;;1.50;1.40;;;20.70;78.50;;;;;;4991916;28;20454;-91
2023/10/27 10:29:32;;;;;;;1.30;1.20;;;20.70;77.70;;;;;;4996557;28;20526;-90
2023/10/27 10:32:30;;;;;;;1.23;1.13;;;20.80;77.90;;;;;;4996715;28;20943;-91
2023/10/27 10:35:21;;;;;;;1.50;1.30;;;20.70;77.80;;;;;;4996409;28;20440;-86
2023/10/27 10:37:47;;;;;;;2.30;1.27;;;20.70;77.90;;;;;;4995623;28;20540;-86
2023/10/27 10:40:19;;;;;;;1.30;1.20;;;20.70;78.00;;;;;;4996111;28;20455;-90
2023/10/27 10:43:23;;;;;;;1.50;1.13;;;20.70;78.30;;;;;;4996418;28;20448;-90
2023/10/27 10:45:54;;;;;;;1.33;1.23;;;20.70;78.00;;;;;;5009025;28;20881;-88
2023/10/27 10:48:22;;;;;;;2.00;1.33;;;20.70;78.10;;;;;;5015473;28;20801;-89
2023/10/27 10:50:49;;;;;;;1.53;1.17;;;20.70;78.00;;;;;;5016137;28;20537;-89
2023/10/27 10:53:17;;;;;;;2.70;1.50;;;20.70;78.00;;;;;;5015914;28;20957;-90
2023/10/27 10:55:45;;;;;;;1.30;1.10;;;20.70;78.10;;;;;;5015902;28;20453;-89
2023/10/27 10:58:21;;;;;;;1.40;1.30;;;20.70;78.10;;;;;;5016019;28;20811;-89
2023/10/27 11:00:48;;;;;;;2.53;1.33;;;20.70;78.30;;;;;;5016073;28;20430;-89
2023/10/27 11:03:17;;;;;;;2.50;1.60;;;20.70;78.20;;;;;;5015957;28;20525;-89
2023/10/27 11:05:44;;;;;;;1.40;1.30;;;20.70;78.30;;;;;;5015608;28;20525;-88
2023/10/27 11:08:11;;;;;;;1.63;1.53;;;20.70;78.20;;;;;;5015562;28;20457;-89
2023/10/27 11:10:38;;;;;;;1.73;1.20;;;20.80;78.60;;;;;;5015766;28;20450;-88
2023/10/27 11:13:06;;;;;;;1.80;1.30;;;20.70;78.40;;;;;;5015374;28;20477;-89
2023/10/27 11:15:43;;;;;;;2.17;1.17;;;20.70;78.40;;;;;;5015042;28;20478;-88
2023/10/27 11:18:13;;;;;;;1.30;1.10;;;20.70;78.30;;;;;;5013469;28;20449;-89
2023/10/27 11:20:45;;;;;;;1.30;1.20;;;20.70;78.40;;;;;;5018482;28;20478;-87
2023/10/27 11:23:14;;;;;;;1.53;1.30;;;20.70;78.10;;;;;;5001367;28;20475;-90
2023/10/27 11:25:41;;;;;;;1.60;1.37;;;20.70;77.80;;;;;;4995660;28;20834;-89
2023/10/27 11:28:21;;;;;;;1.33;1.20;;;20.70;78.20;;;;;;4995443;28;20454;-89
2023/10/27 11:31:13;;;;;;;2.13;1.30;;;20.80;78.40;;;;;;4995653;28;20442;-89
2023/10/27 11:33:59;;;;;;;1.40;1.23;;;20.80;78.30;;;;;;4981182;28;20467;-89
2023/10/27 11:36:29;;;;;;;1.53;1.43;;;20.80;78.30;;;;;;4995881;28;20457;-89
2023/10/27 11:38:57;;;;;;;1.50;1.27;;;20.70;78.20;;;;;;4995468;28;20448;-89
2023/10/27 11:41:24;;;;;;;1.30;1.20;;;20.80;78.40;;;;;;4995724;28;20462;-88
2023/10/27 11:43:50;;;;;;;2.80;1.43;;;20.70;78.30;;;;;;4995672;28;20470;-89
2023/10/27 11:46:19;;;;;;;3.73;1.30;;;20.80;78.50;;;;;;5007093;28;20582;-90
2023/10/27 11:48:48;;;;;;;1.73;1.00;;;20.80;77.90;;;;;;4997381;28;20461;-96
2023/10/27 11:51:15;;;;;;;1.20;1.10;;;20.80;78.10;;;;;;4997752;28;20436;-96
2023/10/27 11:53:44;;;;;;;2.73;1.40;;;20.80;78.40;;;;;;4998507;28;20466;-96
2023/10/27 11:56:11;;;;;;;3.20;1.47;;;20.70;78.50;;;;;;4997783;28;20446;-96
2023/10/27 11:58:38;;;;;;;3.67;1.50;;;20.80;78.90;;;;;;4997094;28;20778;-96
2023/10/27 12:01:05;;;;;;;1.93;1.40;;;20.70;79.00;;;;;;4996743;28;20812;-96
2023/10/27 12:03:32;;;;;;;3.20;1.70;;;20.80;79.10;;;;;;4996493;28;20544;-96
2023/10/27 12:05:59;;;;;;;1.40;1.10;;;20.80;79.20;;;;;;4996326;28;20582;-96
2023/10/27 12:08:26;;;;;;;3.30;1.47;;;20.70;79.40;;;;;;4996491;28;20511;-96
2023/10/27 12:10:54;;;;;;;2.77;1.30;;;20.80;79.60;;;;;;4997383;28;20535;-96
2023/10/27 12:13:21;;;;;;;3.23;1.87;;;20.80;79.80;;;;;;4997463;28;20474;-96
2023/10/27 12:15:48;;;;;;;1.87;1.23;;;20.80;79.70;;;;;;4997149;28;20435;-95
2023/10/27 12:18:15;;;;;;;1.50;1.17;;;20.80;79.60;;;;;;4997036;28;20471;-96
2023/10/27 12:20:43;;;;;;;2.00;1.20;;;20.80;79.50;;;;;;4996541;28;20927;-96
2023/10/27 12:23:10;;;;;;;2.90;1.30;;;20.80;79.70;;;;;;4996501;28;20469;-96
2023/10/27 12:25:37;;;;;;;1.30;1.20;;;20.80;79.80;;;;;;4996823;28;20513;-96
2023/10/27 12:28:07;;;;;;;1.47;1.37;;;20.80;80.60;;;;;;4996675;28;20443;-96
2023/10/27 12:30:36;;;;;;;7.53;1.20;;;20.80;79.80;;;;;;5000233;28;20483;-96
2023/10/27 12:33:03;;;;;;;2.07;1.40;;;20.80;79.70;;;;;;4996185;28;20447;-96
2023/10/27 12:35:30;;;;;;;1.10;0.90;;;20.80;79.70;;;;;;4997323;28;20493;-96
2023/10/27 12:37:57;;;;;;;1.60;1.37;;;20.80;79.80;;;;;;4995956;28;20795;-95
2023/10/27 12:40:24;;;;;;;1.60;1.20;;;20.90;80.00;;;;;;4995960;28;20440;-95
2023/10/27 12:42:51;;;;;;;1.60;1.10;;;20.80;79.90;;;;;;4996928;28;20502;-96
2023/10/27 12:45:19;;;;;;;2.20;1.13;;;20.80;79.90;;;;;;5019797;28;20547;-90
2023/10/27 12:47:48;;;;;;;1.40;1.30;;;20.80;80.00;;;;;;5032168;28;20445;-89
2023/10/27 12:50:15;;;;;;;1.97;1.73;;;20.80;79.90;;;;;;5033229;28;20435;-91
2023/10/27 12:52:42;;;;;;;1.60;1.27;;;20.90;80.20;;;;;;5033340;28;20432;-90
2023/10/27 12:55:11;;;;;;;1.50;1.40;;;20.80;79.90;;;;;;5033175;28;20442;-88